Time;durP1;ratioP1;P1;durP2;ratioP2;P2;SDS_P1;SDS_P2;PMS_P1;PMS_P2;Temp;Humidity;BMP_temperature;BMP_pressure;BME280_temperature;BME280_humidity;BME280_pressure;Samples;Min_cycle;Max_cycle;Signal;HPM_P1;HPM_P2
2023/04/16 00:01:32;;;;;;;5.78;4.15;;;9.40;99.90;;;;;;5051029;28;20554;-37
2023/04/16 00:03:58;;;;;;;4.38;3.97;;;9.40;99.90;;;;;;5050889;28;20067;-37
2023/04/16 00:06:23;;;;;;;5.28;4.63;;;9.40;99.90;;;;;;5050213;28;20021;-37
2023/04/16 00:08:50;;;;;;;4.97;4.40;;;9.40;99.90;;;;;;5050997;28;20052;-37
2023/04/16 00:11:16;;;;;;;6.45;4.78;;;9.40;99.90;;;;;;5051117;28;20480;-37
2023/04/16 00:13:42;;;;;;;5.95;5.35;;;9.40;99.90;;;;;;5050682;28;20029;-37
2023/04/16 00:16:08;;;;;;;5.85;5.10;;;9.40;99.90;;;;;;5050171;28;20421;-37
2023/04/16 00:18:34;;;;;;;6.35;5.32;;;9.40;99.90;;;;;;5050927;28;20029;-37
2023/04/16 00:21:00;;;;;;;5.57;4.88;;;9.30;99.90;;;;;;5050897;28;20104;-37
2023/04/16 00:23:25;;;;;;;5.10;4.45;;;9.30;99.90;;;;;;5051137;28;20151;-37
2023/04/16 00:25:52;;;;;;;5.75;4.65;;;9.30;99.90;;;;;;5050610;28;20569;-37
2023/04/16 00:28:18;;;;;;;5.85;4.50;;;9.30;99.90;;;;;;5050533;28;20025;-38
2023/04/16 00:30:44;;;;;;;5.32;4.75;;;9.30;99.90;;;;;;5049436;28;20028;-37
2023/04/16 00:33:09;;;;;;;4.97;4.47;;;9.30;99.90;;;;;;5050659;28;20032;-37
2023/04/16 00:35:35;;;;;;;5.85;4.63;;;9.40;99.90;;;;;;5051636;28;20041;-37
2023/04/16 00:38:00;;;;;;;5.57;4.80;;;9.40;99.90;;;;;;5053971;28;20498;-37
2023/04/16 00:40:27;;;;;;;5.85;5.18;;;9.40;99.90;;;;;;5055147;28;20024;-37
2023/04/16 00:42:53;;;;;;;6.47;5.55;;;9.30;99.90;;;;;;5054655;28;20064;-37
2023/04/16 00:45:19;;;;;;;6.30;4.97;;;9.30;99.90;;;;;;5054261;28;20065;-37
2023/04/16 00:47:45;;;;;;;6.95;5.28;;;9.30;99.90;;;;;;5053709;28;20044;-37
2023/04/16 00:50:10;;;;;;;6.90;5.55;;;9.30;99.90;;;;;;5054409;28;20025;-37
2023/04/16 00:52:37;;;;;;;5.75;5.15;;;9.40;99.90;;;;;;5054302;28;20032;-37
2023/04/16 00:55:04;;;;;;;5.78;5.18;;;9.30;99.90;;;;;;5053998;28;20506;-37
2023/04/16 00:57:29;;;;;;;6.38;5.50;;;9.40;99.90;;;;;;5052460;28;20028;-37
2023/04/16 00:59:56;;;;;;;5.57;5.05;;;9.40;99.90;;;;;;5053810;28;20037;-38
2023/04/16 01:02:22;;;;;;;6.03;5.28;;;9.30;99.90;;;;;;5053625;28;20033;-37
2023/04/16 01:04:47;;;;;;;5.75;5.05;;;9.30;99.90;;;;;;5054328;28;20031;-37
2023/04/16 01:07:13;;;;;;;5.93;4.90;;;9.30;99.90;;;;;;5053248;28;20025;-38
2023/04/16 01:09:39;;;;;;;5.25;4.38;;;9.30;99.90;;;;;;5053871;28;20036;-37
2023/04/16 01:12:04;;;;;;;5.07;4.50;;;9.30;99.90;;;;;;5053775;28;20041;-37
2023/04/16 01:14:35;;;;;;;4.72;4.07;;;9.30;99.90;;;;;;5053854;28;20037;-37
2023/04/16 01:17:03;;;;;;;4.00;3.53;;;9.30;99.90;;;;;;5053417;28;20410;-37
2023/04/16 01:19:35;;;;;;;4.03;3.63;;;9.30;99.90;;;;;;5053560;28;20021;-37
2023/04/16 01:22:01;;;;;;;4.30;3.50;;;9.30;99.90;;;;;;5053642;28;20110;-36
2023/04/16 01:24:27;;;;;;;5.30;3.30;;;9.30;99.90;;;;;;5053538;28;20024;-37
2023/04/16 01:26:53;;;;;;;3.72;3.30;;;9.30;99.90;;;;;;5052887;28;20028;-37
2023/04/16 01:29:18;;;;;;;3.28;2.97;;;9.30;99.90;;;;;;5053519;28;20029;-37
2023/04/16 01:31:45;;;;;;;3.30;3.00;;;9.30;99.90;;;;;;5053388;28;20468;-38
2023/04/16 01:34:11;;;;;;;3.60;2.95;;;9.30;99.90;;;;;;5053604;28;20102;-37
2023/04/16 01:36:37;;;;;;;3.70;2.85;;;9.30;99.90;;;;;;5052876;28;20479;-38
2023/04/16 01:39:03;;;;;;;2.88;2.55;;;9.30;99.90;;;;;;5053525;28;20479;-39
2023/04/16 01:41:30;;;;;;;3.00;2.63;;;9.30;99.90;;;;;;5053210;28;20489;-37
2023/04/16 01:43:56;;;;;;;3.00;2.70;;;9.30;99.90;;;;;;5053291;28;20025;-37
2023/04/16 01:46:30;;;;;;;2.35;2.03;;;9.30;99.90;;;;;;5052812;28;20059;-37
2023/04/16 01:49:00;;;;;;;3.22;2.63;;;9.30;99.90;;;;;;5053492;28;20033;-37
2023/04/16 01:51:26;;;;;;;3.45;2.10;;;9.30;99.90;;;;;;5053321;28;20086;-37
2023/04/16 01:53:53;;;;;;;2.50;2.30;;;9.30;99.90;;;;;;5052927;28;20115;-38
2023/04/16 01:56:19;;;;;;;2.88;2.15;;;9.30;99.90;;;;;;5052833;28;20017;-37
2023/04/16 01:58:46;;;;;;;2.40;2.10;;;9.30;99.90;;;;;;5052992;28;20024;-37
2023/04/16 02:01:12;;;;;;;2.40;2.20;;;9.30;99.90;;;;;;5053099;28;20024;-37
2023/04/16 02:03:38;;;;;;;2.50;2.30;;;9.30;99.90;;;;;;5052914;28;20045;-38
2023/04/16 02:06:03;;;;;;;2.47;2.13;;;9.30;99.90;;;;;;5052314;28;20044;-38
2023/04/16 02:08:29;;;;;;;3.22;2.35;;;9.30;99.90;;;;;;5052472;28;20021;-37
2023/04/16 02:10:55;;;;;;;1.90;1.70;;;9.30;99.90;;;;;;5052869;28;20360;-37
2023/04/16 02:13:22;;;;;;;2.60;2.10;;;9.30;99.90;;;;;;5052749;28;20479;-37
2023/04/16 02:15:49;;;;;;;2.25;1.83;;;9.20;99.90;;;;;;5051977;28;20045;-39
2023/04/16 02:18:15;;;;;;;2.30;1.65;;;9.30;99.90;;;;;;5052421;28;20561;-37
2023/04/16 02:20:42;;;;;;;2.95;1.88;;;9.20;99.90;;;;;;5052434;28;20017;-37
2023/04/16 02:23:08;;;;;;;2.53;2.08;;;9.20;99.90;;;;;;5052208;28;20086;-37
2023/04/16 02:25:42;;;;;;;5.55;1.70;;;9.20;99.90;;;;;;5051161;28;20029;-37
2023/04/16 02:28:08;;;;;;;;;;;9.20;99.90;;;;;;5052471;28;20033;-37
2023/04/16 02:30:39;;;;;;;1.90;1.70;;;9.20;99.90;;;;;;5052438;28;19909;-37
2023/04/16 02:33:06;;;;;;;1.70;1.60;;;9.20;99.90;;;;;;5052142;28;20025;-37
2023/04/16 02:35:33;;;;;;;2.22;1.83;;;9.20;99.90;;;;;;5051809;28;20108;-36
2023/04/16 02:37:59;;;;;;;1.88;1.67;;;9.20;99.90;;;;;;5051655;28;20021;-38
2023/04/16 02:40:25;;;;;;;2.00;1.80;;;9.20;99.90;;;;;;5052036;28;20032;-37
2023/04/16 02:42:52;;;;;;;2.05;1.77;;;9.20;99.90;;;;;;5051914;28;20044;-37
2023/04/16 02:45:18;;;;;;;2.10;1.90;;;9.10;99.90;;;;;;5051885;28;20043;-37
2023/04/16 02:47:43;;;;;;;2.65;2.10;;;9.20;99.90;;;;;;5051475;28;20053;-37
2023/04/16 02:50:09;;;;;;;2.72;2.03;;;9.20;99.90;;;;;;5051925;28;20442;-39
2023/04/16 02:52:35;;;;;;;2.30;2.05;;;9.20;99.90;;;;;;5052147;28;20461;-36
2023/04/16 02:55:00;;;;;;;2.20;2.00;;;9.20;99.90;;;;;;5052149;28;20017;-37
2023/04/16 02:57:26;;;;;;;5.80;2.50;;;9.20;99.90;;;;;;5051714;28;20184;-37
2023/04/16 02:59:52;;;;;;;2.80;2.40;;;9.20;99.90;;;;;;5051614;28;20043;-37
2023/04/16 03:02:17;;;;;;;2.55;2.17;;;9.20;99.90;;;;;;5051696;28;20037;-37
2023/04/16 03:04:43;;;;;;;2.78;2.33;;;9.20;99.90;;;;;;5051933;28;20084;-36
2023/04/16 03:07:10;;;;;;;2.97;2.35;;;9.20;99.90;;;;;;5051304;28;20037;-37
2023/04/16 03:09:35;;;;;;;2.88;2.55;;;9.10;99.90;;;;;;5052503;28;20060;-37
2023/04/16 03:12:01;;;;;;;5.22;3.63;;;9.20;99.90;;;;;;5051413;28;20064;-37
2023/04/16 03:14:27;;;;;;;4.82;4.30;;;9.20;99.90;;;;;;5050127;28;20053;-37
2023/04/16 03:16:53;;;;;;;6.07;5.15;;;9.20;99.90;;;;;;5049527;28;20079;-37
2023/04/16 03:19:18;;;;;;;7.55;5.30;;;9.20;99.90;;;;;;5051235;28;20021;-39
2023/04/16 03:21:44;;;;;;;7.03;5.82;;;9.20;99.90;;;;;;5051509;28;20382;-39
2023/04/16 03:24:10;;;;;;;8.65;6.00;;;9.20;99.90;;;;;;5051731;28;20104;-37
2023/04/16 03:26:36;;;;;;;7.50;6.47;;;9.20;99.90;;;;;;5050690;28;20033;-36
2023/04/16 03:29:01;;;;;;;9.18;7.10;;;9.20;99.90;;;;;;5051165;28;20036;-38
2023/04/16 03:31:27;;;;;;;8.98;7.05;;;9.10;99.90;;;;;;5051181;28;20032;-37
2023/04/16 03:33:53;;;;;;;8.93;7.28;;;9.10;99.90;;;;;;5050911;28;20506;-37
2023/04/16 03:36:18;;;;;;;9.85;7.78;;;9.20;99.90;;;;;;5050969;28;20376;-37
2023/04/16 03:38:44;;;;;;;13.00;8.52;;;9.10;99.90;;;;;;5051610;28;20044;-37
2023/04/16 03:41:10;;;;;;;9.90;8.20;;;9.20;99.90;;;;;;5051380;28;20021;-37
2023/04/16 03:43:35;;;;;;;10.80;8.23;;;9.10;99.90;;;;;;5050978;28;20095;-37
2023/04/16 03:46:01;;;;;;;10.18;7.72;;;9.10;99.90;;;;;;5050751;28;20025;-38
2023/04/16 03:48:27;;;;;;;8.80;6.90;;;9.10;99.90;;;;;;5050919;28;20022;-37
2023/04/16 03:50:52;;;;;;;8.80;6.53;;;9.10;99.90;;;;;;5050875;28;20479;-37
2023/04/16 03:53:18;;;;;;;9.18;6.70;;;9.10;99.90;;;;;;5051125;28;20124;-38
2023/04/16 03:55:43;;;;;;;8.23;6.65;;;9.10;99.90;;;;;;5050510;28;20510;-39
2023/04/16 03:58:09;;;;;;;8.27;6.60;;;9.10;99.90;;;;;;5050986;28;20025;-37
2023/04/16 04:00:35;;;;;;;7.93;6.03;;;9.10;99.90;;;;;;5050934;28;20545;-37
2023/04/16 04:03:00;;;;;;;7.05;6.07;;;9.10;99.90;;;;;;5051187;28;20040;-37
2023/04/16 04:05:26;;;;;;;7.75;5.97;;;9.10;99.90;;;;;;5051029;28;20037;-37
2023/04/16 04:07:52;;;;;;;7.15;5.63;;;9.10;99.90;;;;;;5050658;28;20025;-38
2023/04/16 04:10:18;;;;;;;6.43;5.57;;;9.10;99.90;;;;;;5051594;28;20051;-38
2023/04/16 04:12:44;;;;;;;6.93;5.70;;;9.10;99.90;;;;;;5054988;28;20463;-37
2023/04/16 04:15:10;;;;;;;6.03;5.20;;;9.10;99.90;;;;;;5054884;28;20044;-36
2023/04/16 04:17:36;;;;;;;5.53;4.68;;;9.10;99.90;;;;;;5054262;28;20378;-37
2023/04/16 04:20:01;;;;;;;5.25;4.57;;;9.10;99.90;;;;;;5054912;28;20028;-37
2023/04/16 04:22:27;;;;;;;5.22;4.07;;;9.00;99.90;;;;;;5054778;28;20035;-37
2023/04/16 04:24:53;;;;;;;5.72;4.80;;;9.10;99.90;;;;;;5054478;28;20036;-36
2023/04/16 04:27:18;;;;;;;4.72;4.13;;;9.00;99.90;;;;;;5054010;28;20029;-37
2023/04/16 04:29:44;;;;;;;4.30;3.90;;;9.00;99.90;;;;;;5054347;28;20063;-37
2023/04/16 04:32:09;;;;;;;4.57;3.45;;;9.10;99.90;;;;;;5054743;28;20025;-37
2023/04/16 04:34:35;;;;;;;4.00;3.55;;;9.10;99.90;;;;;;5054464;28;20451;-38
2023/04/16 04:37:01;;;;;;;4.60;3.40;;;9.10;99.90;;;;;;5053866;28;20347;-37
2023/04/16 04:39:26;;;;;;;3.90;3.40;;;9.10;99.90;;;;;;5054338;28;20029;-37
2023/04/16 04:41:52;;;;;;;4.65;3.38;;;9.10;99.90;;;;;;5054412;28;20029;-37
2023/04/16 04:44:17;;;;;;;4.03;3.38;;;9.10;99.90;;;;;;5054216;28;20056;-37
2023/04/16 04:46:43;;;;;;;4.13;3.30;;;9.10;99.90;;;;;;5053712;28;20025;-37
2023/04/16 04:49:09;;;;;;;3.92;3.35;;;9.00;99.90;;;;;;5054114;28;20033;-36
2023/04/16 04:51:35;;;;;;;4.97;3.88;;;9.10;99.90;;;;;;5054178;28;20028;-37
2023/04/16 04:54:00;;;;;;;4.20;3.70;;;9.00;99.90;;;;;;5054115;28;20021;-37
2023/04/16 04:56:26;;;;;;;4.35;3.70;;;9.00;99.90;;;;;;5053662;28;20021;-37
2023/04/16 04:58:51;;;;;;;4.03;3.63;;;9.00;99.90;;;;;;5054002;28;20028;-37
2023/04/16 05:01:17;;;;;;;4.88;3.80;;;9.00;99.90;;;;;;5053778;28;20112;-37
2023/04/16 05:03:43;;;;;;;5.55;4.05;;;9.00;99.90;;;;;;5052897;28;20045;-37
2023/04/16 05:06:08;;;;;;;4.65;4.10;;;9.00;99.90;;;;;;5052131;28;20163;-38
2023/04/16 05:08:34;;;;;;;5.72;4.32;;;9.00;99.90;;;;;;5052661;28;20029;-37
2023/04/16 05:11:01;;;;;;;6.55;4.72;;;9.00;99.90;;;;;;5052756;28;20340;-37
2023/04/16 05:13:26;;;;;;;6.95;5.32;;;9.00;99.90;;;;;;5052938;28;20071;-37
2023/04/16 05:15:52;;;;;;;7.35;5.45;;;9.00;99.90;;;;;;5052161;28;20376;-36
2023/04/16 05:18:17;;;;;;;9.75;7.45;;;9.00;99.90;;;;;;5052327;28;20485;-37
2023/04/16 05:20:43;;;;;;;11.70;8.75;;;9.00;99.90;;;;;;5052301;28;20036;-37
2023/04/16 05:23:08;;;;;;;12.32;8.68;;;9.00;99.90;;;;;;5052385;28;20029;-37
2023/04/16 05:25:34;;;;;;;12.93;9.38;;;9.00;99.90;;;;;;5052341;28;20056;-37
2023/04/16 05:28:00;;;;;;;11.52;9.52;;;9.00;99.90;;;;;;5051851;28;20032;-37
2023/04/16 05:30:25;;;;;;;12.43;9.45;;;9.00;99.90;;;;;;5052113;28;20032;-37
2023/04/16 05:32:51;;;;;;;12.77;9.50;;;9.00;99.90;;;;;;5052095;28;20386;-38
2023/04/16 05:35:16;;;;;;;14.32;9.20;;;9.00;99.90;;;;;;5052088;28;20491;-37
2023/04/16 05:37:42;;;;;;;13.25;9.88;;;9.00;99.90;;;;;;5051645;28;20095;-37
2023/04/16 05:40:08;;;;;;;14.13;9.93;;;9.00;99.90;;;;;;5052286;28;20029;-36
2023/04/16 05:42:34;;;;;;;21.35;12.80;;;9.00;99.90;;;;;;5052036;28;20479;-37
2023/04/16 05:45:03;;;;;;;21.52;12.82;;;9.00;99.90;;;;;;5051947;28;20037;-37
2023/04/16 05:47:28;;;;;;;12.38;9.93;;;8.90;99.90;;;;;;5051953;28;20033;-37
2023/04/16 05:49:54;;;;;;;14.55;10.50;;;9.00;99.90;;;;;;5052035;28;20589;-37
2023/04/16 05:52:19;;;;;;;16.15;10.18;;;9.00;99.90;;;;;;5050988;28;20483;-38
2023/04/16 05:54:45;;;;;;;13.90;10.13;;;9.00;99.90;;;;;;5051643;28;20052;-37
2023/04/16 05:57:12;;;;;;;16.15;11.00;;;8.90;99.90;;;;;;5051661;28;20017;-37
2023/04/16 05:59:38;;;;;;;16.05;11.45;;;9.00;99.90;;;;;;5051965;28;20108;-37
2023/04/16 06:02:04;;;;;;;14.57;11.50;;;9.00;99.90;;;;;;5013781;28;1097268;-37
2023/04/16 06:04:29;;;;;;;15.20;11.32;;;9.00;99.90;;;;;;5052946;28;20095;-37
2023/04/16 06:06:55;;;;;;;16.77;11.65;;;8.90;99.90;;;;;;5052845;28;20514;-37
2023/04/16 06:09:21;;;;;;;14.77;11.55;;;8.90;99.90;;;;;;5052806;28;20087;-37
2023/04/16 06:11:47;;;;;;;15.70;11.40;;;8.90;99.90;;;;;;5053033;28;20035;-38
2023/04/16 06:14:13;;;;;;;17.30;12.48;;;8.90;99.90;;;;;;5052704;28;20116;-37
2023/04/16 06:16:39;;;;;;;17.58;13.07;;;8.90;99.90;;;;;;5052431;28;20100;-38
2023/04/16 06:19:04;;;;;;;19.27;12.68;;;8.90;99.90;;;;;;5052534;28;20021;-37
2023/04/16 06:21:30;;;;;;;19.90;13.48;;;8.90;99.90;;;;;;5052416;28;20124;-37
2023/04/16 06:23:56;;;;;;;19.50;14.02;;;8.90;99.90;;;;;;5052142;28;20477;-38
2023/04/16 06:26:22;;;;;;;18.83;13.18;;;8.90;99.90;;;;;;5051902;28;20117;-37
2023/04/16 06:28:47;;;;;;;20.23;13.77;;;8.90;99.90;;;;;;5052406;28;20031;-38
2023/04/16 06:31:13;;;;;;;20.58;14.23;;;8.90;99.90;;;;;;5052108;28;20107;-37
2023/04/16 06:33:39;;;;;;;19.98;14.48;;;8.90;99.90;;;;;;5051303;28;20032;-37
2023/04/16 06:36:05;;;;;;;21.50;15.60;;;8.90;99.90;;;;;;5051701;28;20017;-38
2023/04/16 06:38:30;;;;;;;23.10;16.38;;;8.90;99.90;;;;;;5052473;28;20028;-37
2023/04/16 06:40:57;;;;;;;26.20;16.42;;;8.90;99.90;;;;;;5052012;28;20021;-36
2023/04/16 06:43:22;;;;;;;23.33;16.02;;;8.90;99.90;;;;;;5052088;28;20510;-37
2023/04/16 06:45:48;;;;;;;22.45;16.17;;;8.90;99.90;;;;;;5051473;28;20021;-38
2023/04/16 06:48:14;;;;;;;25.98;18.73;;;8.90;99.90;;;;;;5051849;28;20079;-37
2023/04/16 06:50:40;;;;;;;23.80;17.02;;;8.90;99.90;;;;;;5051258;28;20032;-37
2023/04/16 06:53:06;;;;;;;23.63;17.08;;;8.90;99.90;;;;;;5051738;28;20159;-37
2023/04/16 06:55:31;;;;;;;20.92;16.27;;;8.90;99.90;;;;;;5051603;28;20104;-36
2023/04/16 06:57:57;;;;;;;23.35;16.45;;;8.90;99.90;;;;;;5051339;28;20091;-37
2023/04/16 07:00:23;;;;;;;23.17;16.55;;;8.90;99.90;;;;;;5051676;28;20025;-37
2023/04/16 07:02:48;;;;;;;24.40;15.52;;;8.90;99.90;;;;;;5051609;28;20528;-37
2023/04/16 07:05:14;;;;;;;22.70;15.70;;;8.90;99.90;;;;;;5051472;28;20033;-37
2023/04/16 07:07:39;;;;;;;22.52;15.77;;;8.90;99.90;;;;;;5051107;28;20029;-36
2023/04/16 07:10:06;;;;;;;22.27;16.27;;;8.80;99.90;;;;;;5051631;28;20035;-37
2023/04/16 07:12:32;;;;;;;20.60;14.77;;;8.90;99.90;;;;;;5051480;28;20059;-37
2023/04/16 07:14:57;;;;;;;21.02;16.33;;;8.80;99.90;;;;;;5051319;28;20464;-37
2023/04/16 07:17:23;;;;;;;21.88;15.15;;;8.80;99.90;;;;;;5050857;28;20464;-37
2023/04/16 07:19:50;;;;;;;23.17;15.85;;;8.80;99.90;;;;;;5051185;28;20017;-37
2023/04/16 07:22:15;;;;;;;24.00;16.83;;;8.90;99.90;;;;;;5051296;28;20033;-37
2023/04/16 07:24:41;;;;;;;22.52;15.57;;;8.80;99.90;;;;;;5051231;28;20066;-37
2023/04/16 07:27:07;;;;;;;23.17;15.98;;;8.80;99.90;;;;;;5050872;28;20494;-37
2023/04/16 07:29:32;;;;;;;26.55;16.27;;;8.80;99.90;;;;;;5051164;28;20387;-36
2023/04/16 07:31:58;;;;;;;21.58;14.50;;;8.80;99.90;;;;;;5051158;28;20078;-38
2023/04/16 07:34:23;;;;;;;20.15;14.68;;;8.80;99.90;;;;;;5051461;28;20032;-37
2023/04/16 07:36:49;;;;;;;22.10;15.90;;;8.80;99.90;;;;;;5050671;28;20064;-37
2023/04/16 07:39:15;;;;;;;22.40;15.50;;;8.80;99.90;;;;;;5051260;28;20025;-37
2023/04/16 07:41:40;;;;;;;21.90;15.30;;;8.90;99.90;;;;;;5051122;28;20021;-37
2023/04/16 07:44:06;;;;;;;20.77;14.85;;;8.80;99.90;;;;;;5050824;28;20052;-38
2023/04/16 07:46:32;;;;;;;20.95;15.13;;;8.80;99.90;;;;;;5050299;28;20021;-38
2023/04/16 07:48:58;;;;;;;19.55;14.32;;;8.80;99.90;;;;;;5050783;28;20081;-37
2023/04/16 07:51:23;;;;;;;23.52;15.80;;;8.90;99.90;;;;;;5050999;28;20474;-37
2023/04/16 07:53:49;;;;;;;20.38;14.98;;;8.80;99.90;;;;;;5050847;28;20037;-37
2023/04/16 07:56:14;;;;;;;20.40;15.23;;;8.80;99.90;;;;;;5049210;28;20022;-37
2023/04/16 07:58:40;;;;;;;22.40;15.70;;;8.90;99.90;;;;;;5051029;28;20014;-37
2023/04/16 08:01:06;;;;;;;22.48;16.63;;;8.80;99.90;;;;;;5050909;28;20068;-37
2023/04/16 08:03:31;;;;;;;23.92;15.18;;;8.80;99.90;;;;;;5050690;28;20045;-37
2023/04/16 08:05:57;;;;;;;21.67;14.98;;;8.80;99.90;;;;;;5050617;28;20033;-38
2023/04/16 08:08:23;;;;;;;21.00;15.07;;;8.90;99.90;;;;;;5050828;28;20471;-38
2023/04/16 08:10:54;;;;;;;22.15;14.75;;;8.90;99.90;;;;;;5050823;28;20497;-37
2023/04/16 08:13:21;;;;;;;22.60;15.60;;;8.90;99.90;;;;;;5050682;28;20487;-37
2023/04/16 08:15:47;;;;;;;21.05;14.65;;;8.90;99.90;;;;;;5050345;28;20033;-38
2023/04/16 08:18:14;;;;;;;21.52;14.45;;;8.90;99.90;;;;;;5050572;28;20021;-37
2023/04/16 08:20:40;;;;;;;19.75;14.18;;;8.90;99.90;;;;;;5050832;28;20024;-38
2023/04/16 08:23:06;;;;;;;21.25;14.30;;;8.90;99.90;;;;;;5050921;28;20143;-37
2023/04/16 08:25:31;;;;;;;19.50;13.30;;;8.90;99.90;;;;;;5050463;28;20475;-37
2023/04/16 08:27:57;;;;;;;18.77;13.60;;;8.90;99.90;;;;;;5050390;28;20104;-37
2023/04/16 08:30:23;;;;;;;20.38;13.98;;;8.90;99.90;;;;;;5052532;28;20411;-37
2023/04/16 08:32:49;;;;;;;19.10;13.63;;;8.90;99.90;;;;;;5051635;28;20032;-37
2023/04/16 08:35:15;;;;;;;18.45;13.27;;;8.90;99.90;;;;;;5050468;28;20033;-37
2023/04/16 08:37:40;;;;;;;21.20;14.45;;;8.90;99.90;;;;;;5049987;28;20025;-37
2023/04/16 08:40:07;;;;;;;18.33;12.93;;;8.90;99.90;;;;;;5050546;28;20021;-37
2023/04/16 08:42:39;;;;;;;19.10;12.60;;;8.80;99.90;;;;;;5050513;28;20068;-38
2023/04/16 08:45:16;;;;;;;19.27;13.85;;;8.90;99.90;;;;;;5050571;28;20112;-37
2023/04/16 08:47:46;;;;;;;22.52;14.32;;;8.90;99.90;;;;;;5049952;28;20483;-37
2023/04/16 08:50:15;;;;;;;19.17;13.13;;;8.90;99.90;;;;;;5050283;28;20029;-37
2023/04/16 08:52:57;;;;;;;18.67;13.07;;;8.90;99.90;;;;;;5049530;28;20021;-38
2023/04/16 08:55:38;;;;;;;19.85;12.95;;;8.90;99.90;;;;;;5050437;28;20104;-38
2023/04/16 08:58:21;;;;;;;22.88;13.77;;;8.90;99.90;;;;;;5053413;28;20506;-37
2023/04/16 09:00:48;;;;;;;18.80;13.40;;;8.90;99.90;;;;;;5054068;28;20029;-40
2023/04/16 09:03:14;;;;;;;18.13;12.70;;;8.90;99.90;;;;;;5053870;28;20037;-37
2023/04/16 09:05:41;;;;;;;19.55;13.20;;;9.00;99.90;;;;;;5053866;28;20052;-37
2023/04/16 09:08:07;;;;;;;17.52;12.93;;;9.00;99.90;;;;;;5053610;28;20108;-37
2023/04/16 09:10:33;;;;;;;16.55;12.27;;;9.00;99.90;;;;;;5053918;28;20458;-37
2023/04/16 09:12:59;;;;;;;21.55;13.48;;;9.00;99.90;;;;;;5049597;28;20475;-40
2023/04/16 09:15:25;;;;;;;21.13;13.15;;;9.00;99.90;;;;;;5039303;28;20021;-40
2023/04/16 09:17:52;;;;;;;23.17;12.40;;;9.00;99.90;;;;;;5042466;28;20022;-38
2023/04/16 09:20:18;;;;;;;22.60;13.98;;;9.00;99.90;;;;;;5035071;28;20029;-38
2023/04/16 09:22:45;;;;;;;17.70;12.75;;;9.00;99.90;;;;;;5033487;28;20026;-36
2023/04/16 09:25:11;;;;;;;17.33;12.23;;;9.10;99.90;;;;;;5035031;28;20425;-39
2023/04/16 09:27:38;;;;;;;20.30;13.05;;;9.10;99.90;;;;;;5034023;28;20588;-36
2023/04/16 09:30:24;;;;;;;22.20;13.15;;;9.20;99.90;;;;;;5035135;28;20503;-34
2023/04/16 09:32:51;;;;;;;16.27;11.50;;;9.20;99.90;;;;;;5033827;28;20029;-39
2023/04/16 09:35:20;;;;;;;18.55;11.95;;;9.30;99.90;;;;;;5035278;28;20022;-36
2023/04/16 09:37:59;;;;;;;18.98;12.32;;;9.30;99.90;;;;;;5035055;28;20030;-36
2023/04/16 09:40:26;;;;;;;16.10;11.68;;;9.30;99.90;;;;;;5033310;28;20033;-36
2023/04/16 09:42:55;;;;;;;17.88;12.43;;;9.40;99.90;;;;;;5036100;28;20029;-34
2023/04/16 09:45:21;;;;;;;15.80;11.25;;;9.50;99.90;;;;;;5035803;28;20026;-36
2023/04/16 09:47:46;;;;;;;17.70;11.55;;;9.50;99.90;;;;;;5034252;28;20387;-36
2023/04/16 09:50:17;;;;;;;17.58;12.05;;;9.50;99.90;;;;;;5035900;28;20029;-34
2023/04/16 09:52:44;;;;;;;16.88;11.98;;;9.50;99.90;;;;;;5034583;28;20040;-36
2023/04/16 09:55:10;;;;;;;18.25;12.00;;;9.60;99.90;;;;;;5033473;28;20451;-36
2023/04/16 09:57:37;;;;;;;15.48;11.27;;;9.60;99.90;;;;;;5032544;28;20104;-34
2023/04/16 10:00:06;;;;;;;16.98;12.13;;;9.60;99.90;;;;;;5032985;28;20060;-38
2023/04/16 10:02:33;;;;;;;16.08;11.35;;;9.60;99.90;;;;;;5032709;28;20032;-36
2023/04/16 10:05:02;;;;;;;17.00;11.70;;;9.70;99.90;;;;;;5032884;28;20032;-36
2023/04/16 10:07:29;;;;;;;17.52;11.77;;;9.70;99.90;;;;;;5033583;28;20380;-39
2023/04/16 10:09:55;;;;;;;18.98;12.02;;;9.70;99.90;;;;;;5033348;28;20029;-36
2023/04/16 10:12:21;;;;;;;17.70;11.77;;;9.70;99.90;;;;;;5033487;28;20026;-38
2023/04/16 10:14:46;;;;;;;16.42;10.68;;;9.80;99.90;;;;;;5032833;28;20037;-34
2023/04/16 10:17:12;;;;;;;17.17;11.88;;;9.70;99.90;;;;;;5032043;28;20021;-35
2023/04/16 10:19:39;;;;;;;17.83;10.98;;;9.80;99.90;;;;;;5032673;28;20061;-36
2023/04/16 10:22:04;;;;;;;15.95;10.80;;;9.80;99.90;;;;;;5032621;28;20052;-38
2023/04/16 10:24:32;;;;;;;16.23;11.15;;;9.90;99.90;;;;;;5032862;28;20057;-37
2023/04/16 10:26:58;;;;;;;15.85;11.02;;;9.90;99.90;;;;;;5031954;28;20155;-34
2023/04/16 10:29:26;;;;;;;16.63;10.77;;;9.90;99.90;;;;;;5032865;28;20471;-36
2023/04/16 10:31:53;;;;;;;17.58;11.75;;;9.90;99.90;;;;;;5033493;28;20029;-36
2023/04/16 10:34:20;;;;;;;16.35;11.05;;;9.90;99.90;;;;;;5031926;28;20025;-36
2023/04/16 10:36:51;;;;;;;15.52;11.13;;;9.90;99.90;;;;;;5033164;28;20034;-37
2023/04/16 10:39:22;;;;;;;16.10;11.13;;;9.90;99.90;;;;;;5033596;28;20044;-37
2023/04/16 10:41:48;;;;;;;16.05;10.85;;;9.90;99.90;;;;;;5033861;28;20048;-36
2023/04/16 10:44:17;;;;;;;15.73;11.13;;;10.00;99.90;;;;;;5032787;28;20096;-34
2023/04/16 10:46:50;;;;;;;14.75;10.65;;;10.00;99.90;;;;;;5032331;28;20039;-39
2023/04/16 10:49:22;;;;;;;18.70;12.10;;;10.00;99.90;;;;;;5033133;28;20738;-37
2023/04/16 10:52:00;;;;;;;16.77;10.98;;;10.00;99.90;;;;;;5032103;28;20502;-36
2023/04/16 10:54:31;;;;;;;17.88;11.27;;;10.00;99.90;;;;;;5031973;28;20116;-38
2023/04/16 10:57:04;;;;;;;14.07;10.73;;;10.00;99.90;;;;;;5031993;28;20099;-34
2023/04/16 10:59:32;;;;;;;15.07;11.48;;;10.00;99.90;;;;;;5033460;28;20018;-36
2023/04/16 11:02:02;;;;;;;15.75;10.45;;;10.10;99.90;;;;;;5032384;28;20022;-36
2023/04/16 11:04:33;;;;;;;13.90;10.60;;;10.10;99.90;;;;;;5032496;28;20021;-36
2023/04/16 11:07:15;;;;;;;15.43;10.65;;;10.10;99.90;;;;;;5032559;28;20452;-39
2023/04/16 11:09:49;;;;;;;13.82;10.18;;;10.10;99.90;;;;;;5032087;28;20031;-38
2023/04/16 11:12:17;;;;;;;15.07;10.77;;;10.10;99.90;;;;;;5032254;28;20028;-34
2023/04/16 11:14:48;;;;;;;16.05;10.85;;;10.10;99.90;;;;;;5032818;28;20051;-38
2023/04/16 11:17:14;;;;;;;13.95;9.93;;;10.10;99.90;;;;;;5031092;28;20472;-34
2023/04/16 11:19:41;;;;;;;15.07;10.07;;;10.10;99.90;;;;;;5031265;28;20100;-34
2023/04/16 11:22:07;;;;;;;15.70;10.05;;;10.10;99.90;;;;;;5031685;28;20042;-34
2023/04/16 11:24:33;;;;;;;14.25;9.38;;;10.10;99.90;;;;;;5031946;28;20037;-36
2023/04/16 11:27:00;;;;;;;13.52;9.38;;;10.10;99.90;;;;;;5031949;28;20032;-36
2023/04/16 11:29:26;;;;;;;15.20;8.98;;;10.20;99.90;;;;;;5032220;28;20108;-34
2023/04/16 11:31:53;;;;;;;12.73;9.05;;;10.20;99.90;;;;;;5031861;28;20458;-34
2023/04/16 11:34:19;;;;;;;14.40;9.32;;;10.20;99.90;;;;;;5032058;28;20112;-36
2023/04/16 11:36:46;;;;;;;16.35;10.90;;;10.20;99.90;;;;;;5031378;28;20028;-35
2023/04/16 11:39:11;;;;;;;14.15;10.50;;;10.20;99.90;;;;;;5031539;28;20021;-38
2023/04/16 11:41:48;;;;;;;14.50;10.18;;;10.20;99.90;;;;;;5031879;28;20037;-44
2023/04/16 11:44:26;;;;;;;15.63;10.32;;;10.20;99.90;;;;;;5031783;28;20523;-44
2023/04/16 11:46:52;;;;;;;14.80;9.95;;;10.20;99.90;;;;;;5030436;28;20032;-44
2023/04/16 11:49:30;;;;;;;14.68;10.40;;;10.20;99.90;;;;;;5031224;28;20053;-45
2023/04/16 11:51:56;;;;;;;12.73;9.85;;;10.20;99.90;;;;;;5031759;28;20056;-42
2023/04/16 11:54:23;;;;;;;13.52;9.05;;;10.20;99.90;;;;;;5031502;28;20454;-42
2023/04/16 11:56:51;;;;;;;13.48;9.23;;;10.20;99.90;;;;;;5030456;28;20490;-46
2023/04/16 11:59:19;;;;;;;13.45;8.63;;;10.20;99.90;;;;;;5031463;28;20096;-44
2023/04/16 12:01:47;;;;;;;13.18;8.90;;;10.20;99.90;;;;;;5031486;28;20036;-44
2023/04/16 12:04:15;;;;;;;12.50;8.45;;;10.30;99.90;;;;;;5031040;28;20532;-46
2023/04/16 12:06:59;;;;;;;13.52;8.82;;;10.30;99.90;;;;;;5030367;28;20025;-45
2023/04/16 12:09:26;;;;;;;;;;;10.30;99.90;;;;;;5031887;28;20108;-43
2023/04/16 12:11:52;;;;;;;12.73;8.68;;;10.30;99.90;;;;;;5030772;28;19951;-44
2023/04/16 12:14:18;;;;;;;12.60;8.55;;;10.30;99.90;;;;;;5030801;28;20029;-44
2023/04/16 12:16:43;;;;;;;11.77;8.55;;;10.30;99.90;;;;;;5030210;28;20072;-44
2023/04/16 12:19:12;;;;;;;11.77;8.50;;;10.30;99.90;;;;;;5031405;28;20028;-44
2023/04/16 12:21:46;;;;;;;11.88;8.38;;;10.30;99.90;;;;;;5032446;28;20220;-46
2023/04/16 12:24:14;;;;;;;10.73;7.80;;;10.40;99.90;;;;;;5031194;28;20022;-44
2023/04/16 12:26:47;;;;;;;10.20;7.55;;;10.30;99.90;;;;;;5031583;28;20269;-46
2023/04/16 12:29:24;;;;;;;10.40;7.68;;;10.40;99.90;;;;;;5030326;28;20033;-46
2023/04/16 12:31:51;;;;;;;10.65;7.75;;;10.40;99.90;;;;;;5033406;28;20029;-42
2023/04/16 12:34:18;;;;;;;10.57;7.55;;;10.40;99.90;;;;;;5035060;28;20033;-45
2023/04/16 12:36:45;;;;;;;10.52;6.93;;;10.40;99.90;;;;;;5035732;28;20048;-42
2023/04/16 12:39:11;;;;;;;9.68;7.43;;;10.40;99.90;;;;;;5034344;28;20029;-44
2023/04/16 12:41:39;;;;;;;9.93;6.55;;;10.40;99.90;;;;;;5034539;28;20026;-43
2023/04/16 12:44:15;;;;;;;10.18;7.15;;;10.40;99.90;;;;;;5035063;28;20030;-41